Time,TemperatureF,DewpointF,PressureIn,WindDirection,WindDirectionDegrees,WindSpeedMPH,WindSpeedGustMPH,Humidity,HourlyPrecipIn,Conditions,Clouds,dailyrainin,SoftwareType,DateUTC
2013-10-18 00:01:00,76.6,72.8,29.94,NNE,25,2.3,2.3,88,0.00,CLR,,0.00,WeatherDisplay:10.37,2013-10-18 04:01:00,
2013-10-18 00:02:00,76.6,72.8,29.94,NNE,26,2.3,2.3,88,0.00,CLR,,0.00,WeatherDisplay:10.37,2013-10-18 04:02:00,
2013-10-18 00:04:00,76.7,72.9,29.94,NNE,19,2.3,2.3,88,0.00,CLR,,0.00,WeatherDisplay:10.37,2013-10-18 04:04:00,
2013-10-18 00:09:00,76.7,72.9,29.94,NNE,19,2.3,2.3,88,0.00,CLR,,0.00,WeatherDisplay:10.37,2013-10-18 04:09:00,
2013-10-18 00:14:00,76.7,72.9,29.94,NNE,19,1.2,1.2,88,0.00,CLR,,0.00,WeatherDisplay:10.37,2013-10-18 04:14:00,
2013-10-18 00:19:00,76.6,72.8,29.94,NNE,19,2.3,2.3,88,0.00,CLR,,0.00,WeatherDisplay:10.37,2013-10-18 04:19:00,
2013-10-18 00:24:00,76.5,72.7,29.94,NE,34,2.3,2.3,88,0.00,CLR,,0.00,WeatherDisplay:10.37,2013-10-18 04:24:00,
2013-10-18 00:29:00,76.3,72.5,29.93,NE,34,0.0,0.0,88,0.00,CLR,,0.00,WeatherDisplay:10.37,2013-10-18 04:29:00,
2013-10-18 00:34:00,76.1,72.6,29.93,NE,34,2.3,2.3,89,0.00,CLR,,0.00,WeatherDisplay:10.37,2013-10-18 04:34:00,
2013-10-18 00:39:00,76.0,72.5,29.93,NE,34,0.0,0.0,89,0.00,CLR,,0.00,WeatherDisplay:10.37,2013-10-18 04:39:00,
2013-10-18 00:44:00,75.9,72.4,29.93,NE,34,1.0,0.0,89,0.00,CLR,,0.00,WeatherDisplay:10.37,2013-10-18 04:44:00,
2013-10-18 00:49:00,75.8,72.3,29.93,NE,34,0.0,0.0,89,0.00,CLR,,0.00,WeatherDisplay:10.37,2013-10-18 04:49:00,
2013-10-18 00:54:00,75.6,72.1,29.93,NE,34,0.0,0.0,89,0.00,CLR,,0.00,WeatherDisplay:10.37,2013-10-18 04:54:00,
2013-10-18 00:59:00,75.3,72.2,29.92,NE,34,0.0,0.0,90,0.00,CLR,,0.00,WeatherDisplay:10.37,2013-10-18 04:59:00,
2013-10-18 01:04:00,74.9,71.8,29.92,NE,34,0.0,0.0,90,0.00,CLR,,0.00,WeatherDisplay:10.37,2013-10-18 05:04:00,
2013-10-18 01:09:00,74.5,71.7,29.92,NE,34,0.0,0.0,91,0.00,CLR,,0.00,WeatherDisplay:10.37,2013-10-18 05:09:00,
2013-10-18 01:14:00,74.2,71.7,29.92,NE,34,0.0,0.0,92,0.00,CLR,,0.00,WeatherDisplay:10.37,2013-10-18 05:14:00,
2013-10-18 01:19:00,73.9,71.4,29.92,NE,34,0.0,0.0,92,0.00,CLR,,0.00,WeatherDisplay:10.37,2013-10-18 05:19:00,
2013-10-18 01:24:00,73.6,71.1,29.92,NE,34,0.0,0.0,92,0.00,CLR,,0.00,WeatherDisplay:10.37,2013-10-18 05:24:00,
2013-10-18 01:29:00,73.4,71.3,29.92,NE,34,0.0,0.0,93,0.00,CLR,,0.00,WeatherDisplay:10.37,2013-10-18 05:29:00,
2013-10-18 01:34:00,73.5,71.7,29.92,NE,34,0.0,0.0,94,0.00,CLR,,0.00,WeatherDisplay:10.37,2013-10-18 05:34:00,
2013-10-18 01:39:00,73.4,71.3,29.92,NE,34,0.0,0.0,93,0.00,CLR,,0.00,WeatherDisplay:10.37,2013-10-18 05:39:00,
2013-10-18 01:44:00,73.3,71.5,29.92,NE,34,0.0,0.0,94,0.00,CLR,,0.00,WeatherDisplay:10.37,2013-10-18 05:44:00,
2013-10-18 01:49:00,73.2,71.4,29.92,NE,34,0.0,0.0,94,0.00,CLR,,0.00,WeatherDisplay:10.37,2013-10-18 05:49:00,
2013-10-18 01:54:00,73.4,71.6,29.92,NE,34,0.0,0.0,94,0.00,CLR,,0.00,WeatherDisplay:10.37,2013-10-18 05:54:00,
2013-10-18 01:59:00,73.5,71.7,29.92,NE,34,0.0,0.0,94,0.00,CLR,,0.00,WeatherDisplay:10.37,2013-10-18 05:59:00,
2013-10-18 02:04:00,73.5,71.7,29.92,NE,34,0.0,0.0,94,0.00,CLR,,0.00,WeatherDisplay:10.37,2013-10-18 06:04:00,
2013-10-18 02:09:00,73.5,71.7,29.92,NE,34,0.0,0.0,94,0.00,CLR,,0.00,WeatherDisplay:10.37,2013-10-18 06:09:00,
2013-10-18 02:14:00,73.5,71.7,29.92,NE,34,0.0,0.0,94,0.00,CLR,,0.00,WeatherDisplay:10.37,2013-10-18 06:14:00,
2013-10-18 02:19:00,73.5,71.7,29.92,NE,34,0.0,0.0,94,0.00,CLR,,0.00,WeatherDisplay:10.37,2013-10-18 06:19:00,
2013-10-18 02:24:00,73.5,71.7,29.92,NE,34,0.0,0.0,94,0.00,CLR,,0.00,WeatherDisplay:10.37,2013-10-18 06:24:00,
2013-10-18 02:29:00,73.7,71.9,29.92,NE,34,0.0,0.0,94,0.00,CLR,,0.00,WeatherDisplay:10.37,2013-10-18 06:29:00,
2013-10-18 02:34:00,73.8,72.0,29.91,NE,34,0.0,0.1,94,0.00,CLR,,0.00,WeatherDisplay:10.37,2013-10-18 06:34:00,
2013-10-18 02:39:00,74.2,72.0,29.91,NE,53,1.2,1.2,93,0.00,CLR,,0.00,WeatherDisplay:10.37,2013-10-18 06:39:00,
2013-10-18 02:44:00,74.5,71.7,29.91,NE,52,1.2,0.0,91,0.00,CLR,,0.00,WeatherDisplay:10.37,2013-10-18 06:44:00,
2013-10-18 02:49:00,74.6,71.8,29.91,East,79,1.0,1.0,91,0.00,CLR,,0.00,WeatherDisplay:10.37,2013-10-18 06:49:00,
2013-10-18 02:54:00,74.4,71.6,29.91,East,101,1.2,0.0,91,0.00,CLR,,0.00,WeatherDisplay:10.37,2013-10-18 06:54:00,
2013-10-18 02:59:00,74.3,71.5,29.91,ESE,102,0.0,0.0,91,0.00,CLR,,0.00,WeatherDisplay:10.37,2013-10-18 06:59:00,
2013-10-18 03:04:00,74.1,71.6,29.91,ESE,102,0.0,0.0,92,0.00,CLR,,0.00,WeatherDisplay:10.37,2013-10-18 07:04:00,
2013-10-18 03:09:00,74.0,71.5,29.91,ESE,102,0.0,0.0,92,0.00,CLR,,0.00,WeatherDisplay:10.37,2013-10-18 07:09:00,
2013-10-18 03:14:00,73.8,71.3,29.91,ESE,102,0.0,0.0,92,0.00,CLR,,0.00,WeatherDisplay:10.37,2013-10-18 07:14:00,
2013-10-18 03:19:00,73.6,71.4,29.91,ESE,102,0.0,0.0,93,0.00,CLR,,0.00,WeatherDisplay:10.37,2013-10-18 07:19:00,
2013-10-18 03:24:00,73.3,71.2,29.90,East,101,0.0,0.0,93,0.00,CLR,,0.00,WeatherDisplay:10.37,2013-10-18 07:24:00,
2013-10-18 03:29:00,73.1,71.0,29.91,East,101,0.0,0.0,93,0.00,CLR,,0.00,WeatherDisplay:10.37,2013-10-18 07:29:00,
2013-10-18 03:34:00,72.8,70.7,29.91,East,101,0.0,0.0,93,0.00,CLR,,0.00,WeatherDisplay:10.37,2013-10-18 07:34:00,
2013-10-18 03:39:00,72.7,70.9,29.91,ESE,102,0.0,0.0,94,0.00,CLR,,0.00,WeatherDisplay:10.37,2013-10-18 07:39:00,
2013-10-18 03:44:00,72.5,70.7,29.90,East,101,0.0,0.0,94,0.00,CLR,,0.00,WeatherDisplay:10.37,2013-10-18 07:44:00,
2013-10-18 03:49:00,72.6,70.8,29.90,East,101,0.0,0.0,94,0.00,CLR,,0.00,WeatherDisplay:10.37,2013-10-18 07:49:00,
2013-10-18 03:54:00,72.6,71.1,29.91,East,101,0.0,0.0,95,0.00,CLR,,0.00,WeatherDisplay:10.37,2013-10-18 07:54:00,
2013-10-18 03:59:00,72.6,70.8,29.91,East,101,0.0,0.0,94,0.00,CLR,,0.00,WeatherDisplay:10.37,2013-10-18 07:59:00,
2013-10-18 04:05:00,72.4,70.6,29.91,East,101,0.0,0.0,94,0.00,CLR,,0.00,WeatherDisplay:10.37,2013-10-18 08:05:00,
2013-10-18 04:10:00,72.3,70.8,29.90,ESE,102,0.0,0.0,95,0.00,CLR,,0.00,WeatherDisplay:10.37,2013-10-18 08:10:00,
2013-10-18 04:15:00,72.4,70.9,29.90,East,101,0.0,0.0,95,0.00,CLR,,0.00,WeatherDisplay:10.37,2013-10-18 08:15:00,
2013-10-18 04:20:00,72.3,70.8,29.90,East,101,0.0,0.0,95,0.00,CLR,,0.00,WeatherDisplay:10.37,2013-10-18 08:20:00,
2013-10-18 04:25:00,72.4,71.2,29.90,East,101,0.0,0.0,96,0.00,CLR,,0.00,WeatherDisplay:10.37,2013-10-18 08:25:00,
2013-10-18 04:30:00,72.3,70.8,29.90,East,101,0.0,0.0,95,0.00,CLR,,0.00,WeatherDisplay:10.37,2013-10-18 08:30:00,
2013-10-18 04:35:00,72.0,70.5,29.90,East,101,0.0,0.0,95,0.00,CLR,,0.00,WeatherDisplay:10.37,2013-10-18 08:35:00,
2013-10-18 04:40:00,72.0,70.5,29.90,ESE,102,0.0,0.0,95,0.00,CLR,,0.00,WeatherDisplay:10.37,2013-10-18 08:40:00,
2013-10-18 04:45:00,72.0,70.8,29.90,ESE,102,0.0,0.0,96,0.00,CLR,,0.00,WeatherDisplay:10.37,2013-10-18 08:45:00,
2013-10-18 04:50:00,72.3,71.1,29.90,East,101,0.0,0.0,96,0.00,CLR,,0.00,WeatherDisplay:10.37,2013-10-18 08:50:00,
2013-10-18 04:55:00,72.4,71.2,29.90,ESE,102,0.0,0.0,96,0.00,CLR,,0.00,WeatherDisplay:10.37,2013-10-18 08:55:00,
2013-10-18 05:00:00,72.3,71.1,29.90,East,101,0.0,0.0,96,0.00,CLR,,0.00,WeatherDisplay:10.37,2013-10-18 09:00:00,
2013-10-18 05:05:00,72.3,71.1,29.90,ESE,102,0.0,0.0,96,0.00,CLR,,0.00,WeatherDisplay:10.37,2013-10-18 09:05:00,
2013-10-18 05:10:00,72.0,70.8,29.91,ESE,102,0.0,0.0,96,0.00,CLR,,0.00,WeatherDisplay:10.37,2013-10-18 09:10:00,
2013-10-18 05:15:00,71.9,70.7,29.91,East,101,0.0,0.0,96,0.00,CLR,,0.00,WeatherDisplay:10.37,2013-10-18 09:15:00,
2013-10-18 05:20:00,71.7,70.5,29.91,East,101,0.0,0.0,96,0.00,CLR,,0.00,WeatherDisplay:10.37,2013-10-18 09:20:00,
2013-10-18 05:25:00,71.5,70.3,29.91,ESE,102,0.0,0.0,96,0.00,CLR,,0.00,WeatherDisplay:10.37,2013-10-18 09:25:00,
2013-10-18 05:30:00,71.4,70.5,29.91,ESE,102,0.0,0.0,97,0.00,CLR,,0.00,WeatherDisplay:10.37,2013-10-18 09:30:00,
2013-10-18 05:35:00,71.5,70.6,29.91,ESE,102,0.0,0.0,97,0.00,CLR,,0.00,WeatherDisplay:10.37,2013-10-18 09:35:00,
2013-10-18 05:40:00,71.6,70.7,29.91,ESE,102,0.0,0.0,97,0.00,CLR,,0.00,WeatherDisplay:10.37,2013-10-18 09:40:00,
2013-10-18 05:45:00,71.8,70.9,29.91,ENE,69,0.0,0.0,97,0.00,CLR,,0.00,WeatherDisplay:10.37,2013-10-18 09:45:00,
2013-10-18 05:50:00,71.9,71.0,29.91,ENE,69,0.0,0.0,97,0.00,CLR,,0.00,WeatherDisplay:10.37,2013-10-18 09:50:00,
2013-10-18 05:55:00,72.0,71.1,29.92,ENE,69,0.0,0.0,97,0.00,CLR,,0.00,WeatherDisplay:10.37,2013-10-18 09:55:00,
2013-10-18 06:00:00,72.1,71.2,29.92,ENE,69,0.0,0.0,97,0.00,CLR,,0.00,WeatherDisplay:10.37,2013-10-18 10:00:00,
2013-10-18 06:05:00,72.0,71.1,29.92,ENE,70,0.0,0.0,97,0.00,CLR,,0.00,WeatherDisplay:10.37,2013-10-18 10:05:00,
2013-10-18 06:10:00,72.1,71.2,29.92,ENE,69,0.0,0.0,97,0.00,CLR,,0.00,WeatherDisplay:10.37,2013-10-18 10:10:00,
2013-10-18 06:15:00,72.2,71.3,29.93,ENE,70,0.0,0.0,97,0.00,CLR,,0.00,WeatherDisplay:10.37,2013-10-18 10:15:00,
2013-10-18 06:20:00,72.1,71.2,29.93,ENE,70,0.0,0.0,97,0.00,CLR,,0.00,WeatherDisplay:10.37,2013-10-18 10:20:00,
2013-10-18 06:25:00,72.1,71.2,29.93,ENE,69,0.0,0.0,97,0.00,CLR,,0.00,WeatherDisplay:10.37,2013-10-18 10:25:00,
2013-10-18 06:30:00,72.1,71.2,29.93,ENE,69,0.0,0.0,97,0.00,CLR,,0.00,WeatherDisplay:10.37,2013-10-18 10:30:00,
2013-10-18 06:35:00,72.1,71.2,29.93,ENE,70,0.0,0.0,97,0.00,CLR,,0.00,WeatherDisplay:10.37,2013-10-18 10:35:00,
2013-10-18 06:40:00,72.1,71.2,29.93,ENE,70,0.0,0.0,97,0.00,CLR,,0.00,WeatherDisplay:10.37,2013-10-18 10:40:00,
2013-10-18 06:45:00,72.0,71.1,29.93,ENE,69,0.0,0.0,97,0.00,CLR,,0.00,WeatherDisplay:10.37,2013-10-18 10:45:00,
2013-10-18 06:50:00,72.0,71.1,29.93,ENE,69,0.0,0.0,97,0.00,CLR,,0.00,WeatherDisplay:10.37,2013-10-18 10:50:00,
2013-10-18 06:55:00,72.0,71.1,29.93,ENE,69,0.0,0.0,97,0.00,CLR,,0.00,WeatherDisplay:10.37,2013-10-18 10:55:00,
2013-10-18 07:00:00,72.0,71.1,29.93,North,350,0.0,0.0,97,0.00,CLR,,0.00,WeatherDisplay:10.37,2013-10-18 11:00:00,
2013-10-18 07:05:00,72.1,71.2,29.93,North,350,0.0,0.0,97,0.00,CLR,,0.00,WeatherDisplay:10.37,2013-10-18 11:05:00,
2013-10-18 07:10:00,72.1,71.2,29.93,North,352,0.0,0.0,97,0.00,CLR,,0.00,WeatherDisplay:10.37,2013-10-18 11:10:00,
2013-10-18 07:15:00,72.0,71.1,29.94,North,350,0.0,0.0,97,0.00,CLR,,0.00,WeatherDisplay:10.37,2013-10-18 11:15:00,
2013-10-18 07:20:00,72.0,71.1,29.94,North,350,0.0,0.0,97,0.00,CLR,,0.00,WeatherDisplay:10.37,2013-10-18 11:20:00,
2013-10-18 07:25:00,71.9,71.0,29.94,North,352,0.0,0.0,97,0.00,CLR,,0.00,WeatherDisplay:10.37,2013-10-18 11:25:00,
2013-10-18 07:30:00,72.0,71.1,29.94,North,349,0.0,0.0,97,0.00,CLR,,0.00,WeatherDisplay:10.37,2013-10-18 11:30:00,
2013-10-18 07:35:00,72.0,71.1,29.94,North,350,0.0,0.0,97,0.00,CLR,,0.00,WeatherDisplay:10.37,2013-10-18 11:35:00,
2013-10-18 07:40:00,72.2,71.3,29.94,North,349,0.0,0.0,97,0.00,CLR,,0.00,WeatherDisplay:10.37,2013-10-18 11:40:00,
2013-10-18 07:45:00,72.5,71.6,29.94,North,350,0.0,0.0,97,0.00,CLR,,0.00,WeatherDisplay:10.37,2013-10-18 11:45:00,
2013-10-18 07:50:00,72.8,71.9,29.95,North,350,0.0,0.0,97,0.00,CLR,,0.00,WeatherDisplay:10.37,2013-10-18 11:50:00,
2013-10-18 07:55:00,73.2,72.3,29.95,North,350,0.0,0.0,97,0.00,CLR,,0.00,WeatherDisplay:10.37,2013-10-18 11:55:00,
2013-10-18 08:00:00,73.7,72.5,29.95,North,350,0.0,0.0,96,0.00,CLR,,0.00,WeatherDisplay:10.37,2013-10-18 12:00:00,
2013-10-18 08:05:00,74.3,73.1,29.95,North,352,0.0,0.0,96,0.00,CLR,,0.00,WeatherDisplay:10.37,2013-10-18 12:05:00,
2013-10-18 08:10:00,74.8,73.3,29.95,NNE,26,2.3,2.3,95,0.00,CLR,,0.00,WeatherDisplay:10.37,2013-10-18 12:10:00,
2013-10-18 08:15:00,75.0,73.2,29.95,NNE,25,0.0,0.0,94,0.00,CLR,,0.00,WeatherDisplay:10.37,2013-10-18 12:15:00,
2013-10-18 08:20:00,75.1,73.3,29.95,NNE,25,0.0,0.0,94,0.00,CLR,,0.00,WeatherDisplay:10.37,2013-10-18 12:20:00,
2013-10-18 08:25:00,75.3,73.1,29.96,NE,44,2.3,2.3,93,0.00,CLR,,0.00,WeatherDisplay:10.37,2013-10-18 12:25:00,
2013-10-18 08:30:00,75.7,73.5,29.96,NE,49,2.3,2.3,93,0.00,CLR,,0.00,WeatherDisplay:10.37,2013-10-18 12:30:00,
2013-10-18 08:35:00,76.2,73.7,29.96,ENE,58,1.2,0.0,92,0.00,CLR,,0.00,WeatherDisplay:10.37,2013-10-18 12:35:00,
2013-10-18 08:40:00,76.9,73.7,29.96,ENE,58,2.3,2.3,90,0.00,CLR,,0.00,WeatherDisplay:10.37,2013-10-18 12:40:00,
2013-10-18 08:45:00,77.4,73.9,29.96,NE,44,3.5,3.5,89,0.00,CLR,,0.00,WeatherDisplay:10.37,2013-10-18 12:45:00,
2013-10-18 08:50:00,77.9,73.7,29.97,ENE,63,2.3,2.3,87,0.00,CLR,,0.00,WeatherDisplay:10.37,2013-10-18 12:50:00,
2013-10-18 08:55:00,77.7,73.5,29.97,NE,49,3.5,3.5,87,0.00,CLR,,0.00,WeatherDisplay:10.37,2013-10-18 12:55:00,
2013-10-18 09:00:00,77.7,73.5,29.97,NE,36,3.5,3.5,87,0.00,CLR,,0.00,WeatherDisplay:10.37,2013-10-18 13:00:00,
2013-10-18 09:05:00,77.6,73.4,29.97,ENE,61,2.3,2.3,87,0.00,CLR,,0.00,WeatherDisplay:10.37,2013-10-18 13:05:00,
2013-10-18 09:10:00,77.7,73.5,29.97,NE,44,3.5,3.5,87,0.00,CLR,,0.00,WeatherDisplay:10.37,2013-10-18 13:10:00,
2013-10-18 09:15:00,78.5,73.6,29.97,NE,44,3.5,3.5,85,0.00,CLR,,0.00,WeatherDisplay:10.37,2013-10-18 13:15:00,
2013-10-18 09:20:00,79.4,73.8,29.97,NE,44,3.0,3.0,83,0.00,CLR,,0.00,WeatherDisplay:10.37,2013-10-18 13:20:00,
2013-10-18 09:25:00,79.5,73.5,29.98,ENE,59,4.6,4.6,82,0.00,CLR,,0.00,WeatherDisplay:10.37,2013-10-18 13:25:00,
2013-10-18 09:30:00,79.5,73.5,29.98,NE,49,3.5,3.5,82,0.00,CLR,,0.00,WeatherDisplay:10.37,2013-10-18 13:30:00,
2013-10-18 09:35:00,79.6,73.6,29.98,ESE,109,3.5,3.5,82,0.00,CLR,,0.00,WeatherDisplay:10.37,2013-10-18 13:35:00,
2013-10-18 09:40:00,79.7,73.3,29.97,ENE,78,3.5,3.5,81,0.00,CLR,,0.00,WeatherDisplay:10.37,2013-10-18 13:40:00,
2013-10-18 09:45:00,79.6,73.3,29.98,ENE,77,3.5,3.5,81,0.00,CLR,,0.00,WeatherDisplay:10.37,2013-10-18 13:45:00,
2013-10-18 09:50:00,79.7,73.3,29.97,NE,45,3.5,3.5,81,0.00,CLR,,0.00,WeatherDisplay:10.37,2013-10-18 13:50:00,
2013-10-18 09:55:00,79.6,73.3,29.97,ESE,102,3.5,3.5,81,0.00,CLR,,0.00,WeatherDisplay:10.37,2013-10-18 13:55:00,
2013-10-18 10:00:00,79.6,73.3,29.98,ENE,69,2.3,2.3,81,0.00,CLR,,0.00,WeatherDisplay:10.37,2013-10-18 14:00:00,
2013-10-18 10:05:00,80.3,73.9,29.97,NE,53,4.0,4.0,81,0.00,CLR,,0.00,WeatherDisplay:10.37,2013-10-18 14:05:00,
2013-10-18 10:10:00,81.0,73.9,29.98,ENE,76,3.5,3.5,79,0.00,CLR,,0.00,WeatherDisplay:10.37,2013-10-18 14:10:00,
2013-10-18 10:15:00,81.4,73.5,29.98,East,89,4.6,4.6,77,0.00,CLR,,0.00,WeatherDisplay:10.37,2013-10-18 14:15:00,
2013-10-18 10:20:00,81.3,73.4,29.98,NE,54,3.5,3.5,77,0.00,CLR,,0.00,WeatherDisplay:10.37,2013-10-18 14:20:00,
2013-10-18 10:25:00,81.2,73.7,29.98,ENE,67,5.0,5.0,78,0.00,CLR,,0.00,WeatherDisplay:10.37,2013-10-18 14:25:00,
2013-10-18 10:30:00,81.0,73.1,29.98,NE,56,4.6,4.6,77,0.00,CLR,,0.00,WeatherDisplay:10.37,2013-10-18 14:30:00,
2013-10-18 10:35:00,81.4,73.5,29.98,ENE,58,4.0,4.0,77,0.00,CLR,,0.00,WeatherDisplay:10.37,2013-10-18 14:35:00,
2013-10-18 10:40:00,82.0,73.7,29.98,East,101,3.5,3.5,76,0.00,CLR,,0.00,WeatherDisplay:10.37,2013-10-18 14:40:00,
2013-10-18 10:45:00,82.7,74.0,29.98,ENE,66,6.0,6.0,75,0.00,CLR,,0.00,WeatherDisplay:10.37,2013-10-18 14:45:00,
2013-10-18 10:50:00,83.4,73.8,29.98,NE,54,5.8,5.8,73,0.00,CLR,,0.00,WeatherDisplay:10.37,2013-10-18 14:50:00,
2013-10-18 10:55:00,83.7,73.7,29.98,East,96,4.0,4.0,72,0.00,CLR,,0.00,WeatherDisplay:10.37,2013-10-18 14:55:00,
2013-10-18 11:00:00,83.7,72.9,29.98,ENE,71,4.6,4.6,70,0.00,CLR,,0.00,WeatherDisplay:10.37,2013-10-18 15:00:00,
2013-10-18 11:05:00,83.7,73.3,29.98,NE,44,6.0,6.0,71,0.00,CLR,,0.00,WeatherDisplay:10.37,2013-10-18 15:05:00,
2013-10-18 11:10:00,83.4,72.6,29.98,North,356,3.5,3.5,70,0.00,CLR,,0.00,WeatherDisplay:10.37,2013-10-18 15:10:00,
2013-10-18 11:15:00,83.9,73.1,29.98,NE,39,8.1,8.1,70,0.00,CLR,,0.00,WeatherDisplay:10.37,2013-10-18 15:15:00,
2013-10-18 11:20:00,83.8,72.5,29.98,NNE,33,5.8,5.8,69,0.00,CLR,,0.00,WeatherDisplay:10.37,2013-10-18 15:20:00,
2013-10-18 11:25:00,84.1,72.8,29.98,East,79,2.3,2.3,69,0.00,CLR,,0.00,WeatherDisplay:10.37,2013-10-18 15:25:00,
2013-10-18 11:30:00,84.9,72.3,29.98,NW,319,4.6,4.6,66,0.00,CLR,,0.00,WeatherDisplay:10.37,2013-10-18 15:30:00,
2013-10-18 11:35:00,84.8,71.7,29.98,NNE,20,4.6,4.6,65,0.00,CLR,,0.00,WeatherDisplay:10.37,2013-10-18 15:35:00,
2013-10-18 11:40:00,85.2,72.6,29.98,North,6,4.6,4.6,66,0.00,CLR,,0.00,WeatherDisplay:10.37,2013-10-18 15:40:00,
2013-10-18 11:45:00,86.0,72.9,29.98,NE,56,3.5,3.5,65,0.00,CLR,,0.00,WeatherDisplay:10.37,2013-10-18 15:45:00,
2013-10-18 11:50:00,85.8,71.7,29.97,ESE,118,4.6,4.6,63,0.00,CLR,,0.00,WeatherDisplay:10.37,2013-10-18 15:50:00,
2013-10-18 11:55:00,86.2,72.6,29.97,North,352,3.0,3.0,64,0.00,CLR,,0.00,WeatherDisplay:10.37,2013-10-18 15:55:00,
2013-10-18 12:00:00,86.1,72.0,29.97,NNE,20,6.0,6.0,63,0.00,CLR,,0.00,WeatherDisplay:10.37,2013-10-18 16:00:00,
2013-10-18 12:05:00,86.0,71.9,29.97,NNE,18,3.5,3.5,63,0.00,CLR,,0.00,WeatherDisplay:10.37,2013-10-18 16:05:00,
2013-10-18 12:10:00,86.7,72.1,29.97,North,8,3.5,3.5,62,0.00,CLR,,0.00,WeatherDisplay:10.37,2013-10-18 16:10:00,
2013-10-18 12:15:00,86.6,73.4,29.97,East,100,6.0,6.0,65,0.00,CLR,,0.00,WeatherDisplay:10.37,2013-10-18 16:15:00,
2013-10-18 12:20:00,86.6,72.5,29.96,NE,46,2.0,2.0,63,0.00,CLR,,0.00,WeatherDisplay:10.37,2013-10-18 16:20:00,
2013-10-18 12:25:00,87.2,73.1,29.96,NNE,20,6.0,6.0,63,0.00,CLR,,0.00,WeatherDisplay:10.37,2013-10-18 16:25:00,
2013-10-18 12:30:00,87.1,72.5,29.96,NNE,30,5.8,5.8,62,0.00,CLR,,0.00,WeatherDisplay:10.37,2013-10-18 16:30:00,
2013-10-18 12:35:00,87.4,73.3,29.96,NE,52,3.5,3.5,63,0.00,CLR,,0.00,WeatherDisplay:10.37,2013-10-18 16:35:00,
2013-10-18 12:40:00,87.5,72.9,29.96,NNE,27,8.1,8.1,62,0.00,CLR,,0.00,WeatherDisplay:10.37,2013-10-18 16:40:00,
2013-10-18 12:45:00,87.1,72.5,29.96,NNE,12,4.0,4.0,62,0.00,CLR,,0.00,WeatherDisplay:10.37,2013-10-18 16:45:00,
2013-10-18 12:50:00,86.9,72.3,29.95,NNW,348,1.2,1.2,62,0.00,CLR,,0.00,WeatherDisplay:10.37,2013-10-18 16:50:00,
2013-10-18 12:55:00,87.2,71.6,29.95,ENE,75,5.8,5.8,60,0.00,CLR,,0.00,WeatherDisplay:10.37,2013-10-18 16:55:00,
2013-10-18 13:00:00,87.2,72.1,29.95,NNE,32,6.9,6.9,61,0.00,CLR,,0.00,WeatherDisplay:10.37,2013-10-18 17:00:00,
2013-10-18 13:05:00,87.5,72.9,29.94,NNW,330,1.2,0.0,62,0.00,CLR,,0.00,WeatherDisplay:10.37,2013-10-18 17:05:00,
2013-10-18 13:10:00,88.6,73.4,29.94,West,279,1.2,1.2,61,0.00,CLR,,0.00,WeatherDisplay:10.37,2013-10-18 17:10:00,
2013-10-18 13:15:00,89.0,72.3,29.94,NE,50,4.0,4.0,58,0.00,CLR,,0.00,WeatherDisplay:10.37,2013-10-18 17:15:00,
2013-10-18 13:20:00,89.0,72.8,29.94,East,94,1.2,1.2,59,0.00,CLR,,0.00,WeatherDisplay:10.37,2013-10-18 17:20:00,
2013-10-18 13:25:00,89.1,71.4,29.93,SSE,148,3.5,3.5,56,0.00,CLR,,0.00,WeatherDisplay:10.37,2013-10-18 17:25:00,
2013-10-18 13:30:00,90.0,72.2,29.93,North,9,3.0,3.0,56,0.00,CLR,,0.00,WeatherDisplay:10.37,2013-10-18 17:30:00,
2013-10-18 13:35:00,90.2,72.4,29.93,West,271,2.3,2.3,56,0.00,CLR,,0.00,WeatherDisplay:10.37,2013-10-18 17:35:00,
2013-10-18 13:40:00,90.1,72.3,29.93,NNW,346,6.9,6.9,56,0.00,CLR,,0.00,WeatherDisplay:10.37,2013-10-18 17:40:00,
2013-10-18 13:45:00,89.3,72.1,29.92,NE,41,4.0,4.0,57,0.00,CLR,,0.00,WeatherDisplay:10.37,2013-10-18 17:45:00,
2013-10-18 13:50:00,88.7,72.0,29.92,NE,40,3.5,3.5,58,0.00,CLR,,0.00,WeatherDisplay:10.37,2013-10-18 17:50:00,
2013-10-18 13:55:00,89.4,72.7,29.92,ENE,68,2.0,2.0,58,0.00,CLR,,0.00,WeatherDisplay:10.37,2013-10-18 17:55:00,
2013-10-18 14:00:00,89.5,71.7,29.92,NE,41,2.3,2.3,56,0.00,CLR,,0.00,WeatherDisplay:10.37,2013-10-18 18:00:00,
2013-10-18 14:05:00,89.2,70.9,29.92,WSW,238,3.5,3.5,55,0.00,CLR,,0.00,WeatherDisplay:10.37,2013-10-18 18:05:00,
2013-10-18 14:10:00,88.3,75.9,29.92,South,186,4.6,4.6,67,0.00,CLR,,0.00,WeatherDisplay:10.37,2013-10-18 18:10:00,
2013-10-18 14:15:00,88.1,76.2,29.91,SSE,155,4.0,4.0,68,0.00,CLR,,0.00,WeatherDisplay:10.37,2013-10-18 18:15:00,
2013-10-18 14:20:00,88.7,76.8,29.91,SW,231,3.5,3.5,68,0.00,CLR,,0.00,WeatherDisplay:10.37,2013-10-18 18:20:00,
2013-10-18 14:25:00,89.4,76.1,29.91,South,169,2.3,2.3,65,0.00,CLR,,0.00,WeatherDisplay:10.37,2013-10-18 18:25:00,
2013-10-18 14:30:00,90.0,77.1,29.91,SW,215,3.0,3.0,66,0.00,CLR,,0.00,WeatherDisplay:10.37,2013-10-18 18:30:00,
2013-10-18 14:35:00,90.8,77.4,29.90,West,262,3.5,3.5,65,0.00,CLR,,0.00,WeatherDisplay:10.37,2013-10-18 18:35:00,
2013-10-18 14:40:00,90.9,77.0,29.91,South,173,2.3,2.3,64,0.00,CLR,,0.00,WeatherDisplay:10.37,2013-10-18 18:40:00,
2013-10-18 14:45:00,90.9,77.5,29.90,SSW,194,3.5,3.5,65,0.00,CLR,,0.00,WeatherDisplay:10.37,2013-10-18 18:45:00,
2013-10-18 14:50:00,90.3,76.9,29.90,South,177,4.0,4.0,65,0.00,CLR,,0.00,WeatherDisplay:10.37,2013-10-18 18:50:00,
2013-10-18 14:55:00,90.4,76.6,29.90,SSW,203,3.5,3.5,64,0.00,CLR,,0.00,WeatherDisplay:10.37,2013-10-18 18:55:00,
2013-10-18 15:00:00,90.1,76.7,29.90,SSE,162,3.5,3.5,65,0.00,CLR,,0.00,WeatherDisplay:10.37,2013-10-18 19:00:00,
2013-10-18 15:05:00,89.9,76.1,29.90,SW,233,4.6,4.6,64,0.00,CLR,,0.00,WeatherDisplay:10.37,2013-10-18 19:05:00,
2013-10-18 15:10:00,89.4,75.6,29.90,WNW,288,2.3,2.3,64,0.00,CLR,,0.00,WeatherDisplay:10.37,2013-10-18 19:10:00,
2013-10-18 15:15:00,89.5,75.7,29.90,SW,217,3.5,3.5,64,0.00,CLR,,0.00,WeatherDisplay:10.37,2013-10-18 19:15:00,
2013-10-18 15:20:00,89.8,76.5,29.90,SE,145,3.5,3.5,65,0.00,CLR,,0.00,WeatherDisplay:10.37,2013-10-18 19:20:00,
2013-10-18 15:25:00,89.6,76.3,29.90,SSW,210,4.0,4.0,65,0.00,CLR,,0.00,WeatherDisplay:10.37,2013-10-18 19:25:00,
2013-10-18 15:30:00,89.4,75.6,29.90,WSW,246,3.5,3.5,64,0.00,CLR,,0.00,WeatherDisplay:10.37,2013-10-18 19:30:00,
2013-10-18 15:35:00,89.5,76.2,29.90,West,259,2.3,2.3,65,0.00,CLR,,0.00,WeatherDisplay:10.37,2013-10-18 19:35:00,
2013-10-18 15:40:00,89.2,75.4,29.90,West,274,3.5,3.5,64,0.00,CLR,,0.00,WeatherDisplay:10.37,2013-10-18 19:40:00,
2013-10-18 15:45:00,88.9,75.1,29.90,SE,130,4.6,4.6,64,0.00,CLR,,0.00,WeatherDisplay:10.37,2013-10-18 19:45:00,
2013-10-18 15:50:00,88.6,75.8,29.90,WSW,246,4.6,4.6,66,0.00,CLR,,0.00,WeatherDisplay:10.37,2013-10-18 19:50:00,
2013-10-18 15:55:00,88.7,75.9,29.90,SW,228,3.0,3.0,66,0.00,CLR,,0.00,WeatherDisplay:10.37,2013-10-18 19:55:00,
2013-10-18 16:00:00,88.5,75.7,29.90,WSW,245,3.5,3.5,66,0.00,CLR,,0.00,WeatherDisplay:10.37,2013-10-18 20:00:00,
2013-10-18 16:05:00,88.4,75.6,29.90,South,172,1.2,1.2,66,0.00,CLR,,0.00,WeatherDisplay:10.37,2013-10-18 20:05:00,
2013-10-18 16:10:00,88.9,75.6,29.90,South,188,3.5,3.5,65,0.00,CLR,,0.00,WeatherDisplay:10.37,2013-10-18 20:10:00,
2013-10-18 16:15:00,88.9,76.1,29.90,SE,131,3.5,0.0,66,0.00,CLR,,0.00,WeatherDisplay:10.37,2013-10-18 20:15:00,
2013-10-18 16:21:00,89.0,75.2,29.90,West,259,3.5,3.5,64,0.00,CLR,,0.00,WeatherDisplay:10.37,2013-10-18 20:21:00,
2013-10-18 16:26:00,88.5,75.7,29.90,SE,137,3.5,3.5,66,0.00,CLR,,0.00,WeatherDisplay:10.37,2013-10-18 20:26:00,
2013-10-18 16:31:00,87.9,75.6,29.90,NW,308,3.5,3.5,67,0.00,CLR,,0.00,WeatherDisplay:10.37,2013-10-18 20:31:00,
2013-10-18 16:36:00,88.4,75.6,29.90,SSW,212,3.0,3.0,66,0.00,CLR,,0.00,WeatherDisplay:10.37,2013-10-18 20:36:00,
2013-10-18 16:41:00,88.8,76.0,29.90,West,260,1.2,1.2,66,0.00,CLR,,0.00,WeatherDisplay:10.37,2013-10-18 20:41:00,
2013-10-18 16:46:00,89.0,75.7,29.90,SSE,148,3.5,3.5,65,0.00,CLR,,0.00,WeatherDisplay:10.37,2013-10-18 20:46:00,
2013-10-18 16:51:00,88.3,75.5,29.90,ESE,110,3.5,3.5,66,0.00,CLR,,0.00,WeatherDisplay:10.37,2013-10-18 20:51:00,
2013-10-18 16:56:00,88.3,75.9,29.90,SSW,207,3.5,3.5,67,0.00,CLR,,0.00,WeatherDisplay:10.37,2013-10-18 20:56:00,
2013-10-18 17:01:00,88.2,75.9,29.90,NNE,20,2.0,2.0,67,0.00,CLR,,0.00,WeatherDisplay:10.37,2013-10-18 21:01:00,
2013-10-18 17:06:00,88.2,75.4,29.90,SSE,156,3.5,3.5,66,0.00,CLR,,0.00,WeatherDisplay:10.37,2013-10-18 21:06:00,
2013-10-18 17:11:00,88.2,75.9,29.90,SE,131,3.0,3.0,67,0.00,CLR,,0.00,WeatherDisplay:10.37,2013-10-18 21:11:00,
2013-10-18 17:16:00,88.1,75.8,29.90,SE,139,1.2,1.2,67,0.00,CLR,,0.00,WeatherDisplay:10.37,2013-10-18 21:16:00,
2013-10-18 17:21:00,88.5,76.1,29.90,WSW,243,2.3,2.3,67,0.00,CLR,,0.00,WeatherDisplay:10.37,2013-10-18 21:21:00,
2013-10-18 17:26:00,88.3,75.9,29.90,ESE,113,2.3,2.3,67,0.00,CLR,,0.00,WeatherDisplay:10.37,2013-10-18 21:26:00,
2013-10-18 17:31:00,87.7,75.4,29.90,South,183,3.5,3.5,67,0.00,CLR,,0.00,WeatherDisplay:10.37,2013-10-18 21:31:00,
2013-10-18 17:36:00,86.8,75.4,29.90,SSE,158,0.0,0.0,69,0.00,CLR,,0.00,WeatherDisplay:10.37,2013-10-18 21:36:00,
2013-10-18 17:41:00,86.6,75.6,29.90,SSE,167,1.2,1.2,70,0.00,CLR,,0.00,WeatherDisplay:10.37,2013-10-18 21:41:00,
2013-10-18 17:46:00,86.8,75.8,29.90,NE,46,2.0,2.0,70,0.00,CLR,,0.00,WeatherDisplay:10.37,2013-10-18 21:46:00,
2013-10-18 17:51:00,86.8,75.4,29.90,SSW,207,0.0,0.0,69,0.00,CLR,,0.00,WeatherDisplay:10.37,2013-10-18 21:51:00,
2013-10-18 17:56:00,86.8,75.4,29.90,ESE,110,0.0,0.0,69,0.00,CLR,,0.00,WeatherDisplay:10.37,2013-10-18 21:56:00,
2013-10-18 18:01:00,86.5,75.5,29.90,South,169,2.3,2.3,70,0.00,CLR,,0.00,WeatherDisplay:10.37,2013-10-18 22:01:00,
2013-10-18 18:06:00,86.3,75.4,29.90,South,169,0.0,0.0,70,0.00,CLR,,0.00,WeatherDisplay:10.37,2013-10-18 22:06:00,
2013-10-18 18:11:00,86.1,75.2,29.90,South,169,0.0,0.0,70,0.00,CLR,,0.00,WeatherDisplay:10.37,2013-10-18 22:11:00,
2013-10-18 18:16:00,85.4,74.5,29.90,SW,231,1.2,1.2,70,0.00,CLR,,0.00,WeatherDisplay:10.37,2013-10-18 22:16:00,
2013-10-18 18:21:00,84.6,74.6,29.90,West,264,1.2,1.2,72,0.00,CLR,,0.00,WeatherDisplay:10.37,2013-10-18 22:21:00,
2013-10-18 18:26:00,83.9,74.7,29.90,West,263,1.2,1.2,74,0.00,CLR,,0.00,WeatherDisplay:10.37,2013-10-18 22:26:00,
2013-10-18 18:31:00,83.3,74.5,29.90,West,269,1.2,1.2,75,0.00,CLR,,0.00,WeatherDisplay:10.37,2013-10-18 22:31:00,
2013-10-18 18:36:00,82.8,74.5,29.91,NNW,330,1.2,0.0,76,0.00,CLR,,0.00,WeatherDisplay:10.37,2013-10-18 22:36:00,
2013-10-18 18:41:00,82.4,74.1,29.90,WSW,257,2.3,2.3,76,0.00,CLR,,0.00,WeatherDisplay:10.37,2013-10-18 22:41:00,
2013-10-18 18:46:00,82.1,74.2,29.91,WSW,257,0.0,0.0,77,0.00,CLR,,0.00,WeatherDisplay:10.37,2013-10-18 22:46:00,
2013-10-18 18:51:00,81.7,74.2,29.91,WSW,257,0.0,0.0,78,0.00,CLR,,0.00,WeatherDisplay:10.37,2013-10-18 22:51:00,
2013-10-18 18:56:00,81.5,74.4,29.91,WSW,257,0.0,0.0,79,0.00,CLR,,0.00,WeatherDisplay:10.37,2013-10-18 22:56:00,
2013-10-18 19:01:00,81.1,74.3,29.91,WSW,257,0.0,0.0,80,0.00,CLR,,0.00,WeatherDisplay:10.37,2013-10-18 23:01:00,
2013-10-18 19:06:00,80.8,74.0,29.91,WSW,257,0.0,0.0,80,0.00,CLR,,0.00,WeatherDisplay:10.37,2013-10-18 23:06:00,
2013-10-18 19:11:00,80.5,74.1,29.91,WSW,257,0.0,0.0,81,0.00,CLR,,0.00,WeatherDisplay:10.37,2013-10-18 23:11:00,
2013-10-18 19:16:00,80.2,74.2,29.91,WSW,257,0.0,0.0,82,0.00,CLR,,0.00,WeatherDisplay:10.37,2013-10-18 23:16:00,
2013-10-18 19:21:00,79.8,73.8,29.91,WSW,257,0.0,0.0,82,0.00,CLR,,0.00,WeatherDisplay:10.37,2013-10-18 23:21:00,
2013-10-18 19:26:00,79.4,73.8,29.91,WSW,257,0.0,0.0,83,0.00,CLR,,0.00,WeatherDisplay:10.37,2013-10-18 23:26:00,
2013-10-18 19:31:00,79.2,73.9,29.91,WSW,257,0.0,0.0,84,0.00,CLR,,0.00,WeatherDisplay:10.37,2013-10-18 23:31:00,
2013-10-18 19:36:00,79.0,73.7,29.91,WSW,257,0.0,0.0,84,0.00,CLR,,0.00,WeatherDisplay:10.37,2013-10-18 23:36:00,
2013-10-18 19:41:00,78.7,73.8,29.91,WSW,257,0.0,0.0,85,0.00,CLR,,0.00,WeatherDisplay:10.37,2013-10-18 23:41:00,
2013-10-18 19:46:00,78.5,73.6,29.91,WSW,257,0.0,0.0,85,0.00,CLR,,0.00,WeatherDisplay:10.37,2013-10-18 23:46:00,
2013-10-18 19:51:00,78.4,73.9,29.92,WSW,257,0.0,0.0,86,0.00,CLR,,0.00,WeatherDisplay:10.37,2013-10-18 23:51:00,
2013-10-18 19:56:00,78.3,73.8,29.92,WSW,257,0.0,0.0,86,0.00,CLR,,0.00,WeatherDisplay:10.37,2013-10-18 23:56:00,
2013-10-18 20:01:00,78.3,73.8,29.92,WSW,257,0.0,0.0,86,0.00,CLR,,0.00,WeatherDisplay:10.37,2013-10-19 00:01:00,
2013-10-18 20:06:00,78.4,73.9,29.92,WSW,257,0.0,0.0,86,0.00,CLR,,0.00,WeatherDisplay:10.37,2013-10-19 00:06:00,
2013-10-18 20:11:00,78.5,74.0,29.92,WNW,286,0.0,0.0,86,0.00,CLR,,0.00,WeatherDisplay:10.37,2013-10-19 00:11:00,
2013-10-18 20:16:00,78.4,73.9,29.92,WNW,287,0.0,0.0,86,0.00,CLR,,0.00,WeatherDisplay:10.37,2013-10-19 00:16:00,
2013-10-18 20:21:00,78.4,74.2,29.92,SW,218,1.2,1.2,87,0.00,CLR,,0.00,WeatherDisplay:10.37,2013-10-19 00:21:00,
2013-10-18 20:26:00,78.2,74.4,29.92,SW,218,0.0,0.0,88,0.00,CLR,,0.00,WeatherDisplay:10.37,2013-10-19 00:26:00,
2013-10-18 20:31:00,78.0,74.5,29.92,SW,218,0.0,0.0,89,0.00,CLR,,0.00,WeatherDisplay:10.37,2013-10-19 00:31:00,
2013-10-18 20:36:00,77.7,73.9,29.92,SW,218,0.0,0.0,88,0.00,CLR,,0.00,WeatherDisplay:10.37,2013-10-19 00:36:00,
2013-10-18 20:41:00,77.5,74.0,29.92,SW,219,0.0,0.0,89,0.00,CLR,,0.00,WeatherDisplay:10.37,2013-10-19 00:41:00,
2013-10-18 20:46:00,77.3,73.8,29.92,SW,218,0.0,0.0,89,0.00,CLR,,0.00,WeatherDisplay:10.37,2013-10-19 00:46:00,
2013-10-18 20:51:00,77.1,73.9,29.92,SW,218,0.0,0.0,90,0.00,CLR,,0.00,WeatherDisplay:10.37,2013-10-19 00:51:00,
2013-10-18 20:56:00,77.1,73.9,29.93,SW,218,0.0,0.0,90,0.00,CLR,,0.00,WeatherDisplay:10.37,2013-10-19 00:56:00,
2013-10-18 21:01:00,77.0,73.8,29.93,SW,218,0.0,0.0,90,0.00,CLR,,0.00,WeatherDisplay:10.37,2013-10-19 01:01:00,
2013-10-18 21:06:00,77.0,73.8,29.93,SW,218,0.0,0.0,90,0.00,CLR,,0.00,WeatherDisplay:10.37,2013-10-19 01:06:00,
2013-10-18 21:11:00,77.0,73.8,29.93,SW,218,0.0,0.0,90,0.00,CLR,,0.00,WeatherDisplay:10.37,2013-10-19 01:11:00,
2013-10-18 21:16:00,76.9,73.7,29.93,SW,218,0.0,0.0,90,0.00,CLR,,0.00,WeatherDisplay:10.37,2013-10-19 01:16:00,
2013-10-18 21:21:00,76.8,74.0,29.93,SW,218,0.0,0.0,91,0.00,CLR,,0.00,WeatherDisplay:10.37,2013-10-19 01:21:00,
2013-10-18 21:26:00,76.6,73.8,29.94,SW,218,0.0,0.0,91,0.00,CLR,,0.00,WeatherDisplay:10.37,2013-10-19 01:26:00,
2013-10-18 21:31:00,76.4,73.6,29.94,SW,218,0.0,0.0,91,0.00,CLR,,0.00,WeatherDisplay:10.37,2013-10-19 01:31:00,
2013-10-18 21:36:00,76.3,73.5,29.94,SW,218,0.0,0.0,91,0.00,CLR,,0.00,WeatherDisplay:10.37,2013-10-19 01:36:00,
2013-10-18 21:41:00,76.3,73.8,29.94,SW,218,0.0,0.0,92,0.00,CLR,,0.00,WeatherDisplay:10.37,2013-10-19 01:41:00,
2013-10-18 21:46:00,76.3,73.8,29.95,SW,218,0.0,0.0,92,0.00,CLR,,0.00,WeatherDisplay:10.37,2013-10-19 01:46:00,
2013-10-18 21:51:00,76.2,73.7,29.95,SW,218,0.0,0.0,92,0.00,CLR,,0.00,WeatherDisplay:10.37,2013-10-19 01:51:00,
2013-10-18 21:56:00,76.2,73.7,29.95,SW,218,0.0,0.0,92,0.00,CLR,,0.00,WeatherDisplay:10.37,2013-10-19 01:56:00,
2013-10-18 22:01:00,76.0,73.5,29.95,SW,217,0.0,0.0,92,0.00,CLR,,0.00,WeatherDisplay:10.37,2013-10-19 02:01:00,
2013-10-18 22:06:00,76.0,73.8,29.95,SW,218,0.0,0.0,93,0.00,CLR,,0.00,WeatherDisplay:10.37,2013-10-19 02:06:00,
2013-10-18 22:11:00,76.1,73.9,29.95,SW,218,0.0,0.0,93,0.00,CLR,,0.00,WeatherDisplay:10.37,2013-10-19 02:11:00,
2013-10-18 22:16:00,76.1,73.6,29.95,SW,218,0.0,0.0,92,0.00,CLR,,0.00,WeatherDisplay:10.37,2013-10-19 02:16:00,
2013-10-18 22:21:00,76.6,74.1,29.96,NE,39,3.0,3.0,92,0.00,CLR,,0.00,WeatherDisplay:10.37,2013-10-19 02:21:00,
2013-10-18 22:26:00,77.2,74.4,29.96,NE,39,3.5,3.5,91,0.00,CLR,,0.00,WeatherDisplay:10.37,2013-10-19 02:26:00,
2013-10-18 22:31:00,77.6,74.4,29.96,NE,39,1.2,1.2,90,0.00,CLR,,0.00,WeatherDisplay:10.37,2013-10-19 02:31:00,
2013-10-18 22:36:00,77.6,74.1,29.96,NE,41,2.3,2.3,89,0.00,CLR,,0.00,WeatherDisplay:10.37,2013-10-19 02:36:00,
2013-10-18 22:41:00,77.7,74.2,29.96,NE,41,0.0,0.0,89,0.00,CLR,,0.00,WeatherDisplay:10.37,2013-10-19 02:41:00,
2013-10-18 22:46:00,77.7,74.2,29.96,NE,41,0.0,0.0,89,0.00,CLR,,0.00,WeatherDisplay:10.37,2013-10-19 02:46:00,
2013-10-18 22:51:00,77.6,74.1,29.96,NE,41,0.0,0.0,89,0.00,CLR,,0.00,WeatherDisplay:10.37,2013-10-19 02:51:00,
2013-10-18 22:56:00,77.6,74.1,29.95,NE,41,1.2,0.0,89,0.00,CLR,,0.00,WeatherDisplay:10.37,2013-10-19 02:56:00,
2013-10-18 23:01:00,77.6,74.1,29.95,NE,40,1.2,0.0,89,0.00,CLR,,0.00,WeatherDisplay:10.37,2013-10-19 03:01:00,
2013-10-18 23:06:00,77.6,74.1,29.95,NE,40,0.0,0.0,89,0.00,CLR,,0.00,WeatherDisplay:10.37,2013-10-19 03:06:00,
2013-10-18 23:11:00,77.5,74.0,29.95,NE,39,0.0,0.0,89,0.00,CLR,,0.00,WeatherDisplay:10.37,2013-10-19 03:11:00,
2013-10-18 23:16:00,77.4,73.9,29.95,NE,39,0.0,0.0,89,0.00,CLR,,0.00,WeatherDisplay:10.37,2013-10-19 03:16:00,
2013-10-18 23:21:00,77.3,73.8,29.95,NE,39,0.0,0.0,89,0.00,CLR,,0.00,WeatherDisplay:10.37,2013-10-19 03:21:00,
2013-10-18 23:26:00,77.2,73.7,29.95,NE,40,1.2,1.2,89,0.00,CLR,,0.00,WeatherDisplay:10.37,2013-10-19 03:26:00,
2013-10-18 23:31:00,77.3,73.8,29.95,NE,39,0.0,0.0,89,0.00,CLR,,0.00,WeatherDisplay:10.37,2013-10-19 03:31:00,
2013-10-18 23:36:00,77.2,74.0,29.95,NE,39,0.0,0.0,90,0.00,CLR,,0.00,WeatherDisplay:10.37,2013-10-19 03:36:00,
2013-10-18 23:41:00,77.1,73.9,29.96,NE,39,0.0,0.0,90,0.00,CLR,,0.00,WeatherDisplay:10.37,2013-10-19 03:41:00,
2013-10-18 23:46:00,76.9,73.7,29.95,NE,39,0.0,0.0,90,0.00,CLR,,0.00,WeatherDisplay:10.37,2013-10-19 03:46:00,
2013-10-18 23:51:00,77.0,73.8,29.95,NE,39,0.0,0.0,90,0.00,CLR,,0.00,WeatherDisplay:10.37,2013-10-19 03:51:00,
2013-10-18 23:56:00,77.0,73.8,29.96,NE,39,0.0,0.0,90,0.00,CLR,,0.00,WeatherDisplay:10.37,2013-10-19 03:56:00,